Weather at Lehigh Valley International Airport

Public forecast

Using degrees Fahrenheit for public forecast. Weather courtesy of forecast.io.

Current aviation weather report (METAR) for Lehigh Valley International Airport

Report is more than 6 hours old.

2022/11/14 14:51 (retrieved 2 years ago)

KABE 141451Z 32012G18KT 10SM CLR 04/M07 A3035 RMK AO2 SLP282 T00441072 50015

Aviation forecast (TAF) for Lehigh Valley International Airport

Forecast is more than 12 hours old.

2023/02/22 18:33 (retrieved 1 year ago)

TAF KABE 221730Z 2218/2318 16004KT 6SM -RASNPL BR OVC050 FM222000 08005KT 5SM -RA BR OVC020 FM230400 08007KT 2SM -RA BR OVC008 FM230800 VRB04KT 2SM BR OVC003 WS020/21035KT FM231400 30013G26KT P6SM BKN030